Time;durP1;ratioP1;P1;durP2;ratioP2;P2;SDS_P1;SDS_P2;PMS_P1;PMS_P2;Temp;Humidity;BMP_temperature;BMP_pressure;BME280_temperature;BME280_humidity;BME280_pressure;Samples;Min_cycle;Max_cycle;Signal;HPM_P1;HPM_P2
2023/08/08 00:00:53;;;;;;;15.73;3.70;;;;;;;;;;4998384;28;94694;-70
2023/08/08 00:03:20;;;;;;;18.60;3.50;;;;;;;;;;4992800;28;92531;-70
2023/08/08 00:05:46;;;;;;;12.63;3.50;;;;;;;;;;4997039;28;93337;-71
2023/08/08 00:08:13;;;;;;;19.42;3.65;;;;;;;;;;4992036;28;93369;-70
2023/08/08 00:10:39;;;;;;;16.92;3.10;;;;;;;;;;4998326;28;92733;-71
2023/08/08 00:13:05;;;;;;;14.18;3.95;;;;;;;;;;4995046;28;93139;-70
2023/08/08 00:15:32;;;;;;;15.38;3.65;;;;;;;;;;4992854;28;92901;-70
2023/08/08 00:17:59;;;;;;;11.75;2.97;;;;;;;;;;4995023;28;91784;-71
2023/08/08 00:20:25;;;;;;;17.52;3.95;;;;;;;;;;4996550;28;92437;-71
2023/08/08 00:22:52;;;;;;;16.38;3.60;;;;;;;;;;4996198;28;93479;-71
2023/08/08 00:25:18;;;;;;;12.15;3.08;;;;;;;;;;4990367;28;94936;-71
2023/08/08 00:27:44;;;;;;;19.00;2.97;;;;;;;;;;4993318;28;93407;-71
2023/08/08 00:30:13;;;;;;;12.63;3.50;;;;;;;;;;4990073;28;92520;-71
2023/08/08 00:32:39;;;;;;;10.88;3.30;;;;;;;;;;4989450;28;94094;-71
2023/08/08 00:35:06;;;;;;;17.33;3.55;;;;;;;;;;4992344;28;93453;-71
2023/08/08 00:37:32;;;;;;;15.75;3.60;;;;;;;;;;4992679;28;92448;-71
2023/08/08 00:39:59;;;;;;;14.15;3.05;;;;;;;;;;4987356;28;94034;-72
2023/08/08 00:42:25;;;;;;;14.68;3.50;;;;;;;;;;4994175;28;92760;-71
2023/08/08 00:44:52;;;;;;;19.02;3.40;;;;;;;;;;4991247;28;92647;-71
2023/08/08 00:47:18;;;;;;;15.35;3.75;;;;;;;;;;4989694;28;96759;-70
2023/08/08 00:49:46;;;;;;;18.48;3.30;;;;;;;;;;4989600;28;95166;-69
2023/08/08 00:52:13;;;;;;;18.27;3.10;;;;;;;;;;4991168;28;96678;-70
2023/08/08 00:54:40;;;;;;;17.48;3.20;;;;;;;;;;4988019;28;94420;-70
2023/08/08 00:57:06;;;;;;;17.35;3.10;;;;;;;;;;4994471;28;92538;-70
2023/08/08 00:59:32;;;;;;;18.20;3.50;;;;;;;;;;4991220;28;93005;-70
2023/08/08 01:01:59;;;;;;;21.52;3.50;;;;;;;;;;4991583;28;93537;-70
2023/08/08 01:04:26;;;;;;;13.60;3.55;;;;;;;;;;4988184;28;92556;-70
2023/08/08 01:07:11;;;;;;;21.13;3.45;;;;;;;;;;4996552;28;94471;-71
2023/08/08 01:10:07;;;;;;;17.25;3.92;;;;;;;;;;4990540;28;92617;-71
2023/08/08 01:12:39;;;;;;;17.60;3.00;;;;;;;;;;4981795;28;93156;-71
2023/08/08 01:15:06;;;;;;;23.08;3.83;;;;;;;;;;4990063;28;95983;-71
2023/08/08 01:17:34;;;;;;;24.83;3.28;;;;;;;;;;4995750;28;92972;-71
2023/08/08 01:20:01;;;;;;;14.60;3.63;;;;;;;;;;4992718;28;93172;-71
2023/08/08 01:22:32;;;;;;;12.07;3.03;;;;;;;;;;4989096;28;93416;-71
2023/08/08 01:24:59;;;;;;;25.02;4.20;;;;;;;;;;4989118;28;92409;-71
2023/08/08 01:27:25;;;;;;;17.95;3.78;;;;;;;;;;4990236;28;93166;-71
2023/08/08 01:29:52;;;;;;;28.48;3.65;;;;;;;;;;4986462;28;92466;-71
2023/08/08 01:32:19;;;;;;;22.55;3.92;;;;;;;;;;4992699;28;93282;-71
2023/08/08 01:34:45;;;;;;;17.92;3.15;;;;;;;;;;4993128;28;92604;-70
2023/08/08 01:37:18;;;;;;;15.90;4.07;;;;;;;;;;4989658;28;92649;-70
2023/08/08 01:39:46;;;;;;;15.90;3.30;;;;;;;;;;4987534;28;95056;-70
2023/08/08 01:42:13;;;;;;;22.80;3.22;;;;;;;;;;4992996;28;93075;-70
2023/08/08 01:44:41;;;;;;;20.25;3.78;;;;;;;;;;4991463;28;93669;-70
2023/08/08 01:47:07;;;;;;;20.52;3.35;;;;;;;;;;4986668;28;93224;-69
2023/08/08 01:49:34;;;;;;;24.55;3.45;;;;;;;;;;4990410;28;93276;-70
2023/08/08 01:52:00;;;;;;;23.23;3.75;;;;;;;;;;4991664;28;92416;-70
2023/08/08 01:54:27;;;;;;;21.08;3.72;;;;;;;;;;4994059;28;93630;-69
2023/08/08 01:56:53;;;;;;;17.25;3.38;;;;;;;;;;4998180;28;92751;-69
2023/08/08 01:59:20;;;;;;;25.13;3.55;;;;;;;;;;4994262;28;92442;-69
2023/08/08 02:01:46;;;;;;;20.70;4.30;;;;;;;;;;4993153;28;94548;-70
2023/08/08 02:04:12;;;;;;;17.50;3.70;;;;;;;;;;4990977;28;94945;-71
2023/08/08 02:06:39;;;;;;;13.13;3.35;;;;;;;;;;4994847;28;95465;-71
2023/08/08 02:09:05;;;;;;;22.95;3.92;;;;;;;;;;4993075;28;92533;-71
2023/08/08 02:11:32;;;;;;;13.13;3.97;;;;;;;;;;4997004;28;92527;-71
2023/08/08 02:13:58;;;;;;;24.05;4.55;;;;;;;;;;4996907;28;93394;-71
2023/08/08 02:16:24;;;;;;;20.60;3.72;;;;;;;;;;4993373;28;92612;-71
2023/08/08 02:18:51;;;;;;;24.30;3.90;;;;;;;;;;4990362;28;93185;-71
2023/08/08 02:21:17;;;;;;;17.10;4.00;;;;;;;;;;4994047;28;91834;-71
2023/08/08 02:23:44;;;;;;;13.38;3.70;;;;;;;;;;4994212;28;92570;-72
2023/08/08 02:26:10;;;;;;;17.90;4.43;;;;;;;;;;4989483;28;93260;-71
2023/08/08 02:28:36;;;;;;;26.20;4.43;;;;;;;;;;4996789;28;96691;-71
2023/08/08 02:31:03;;;;;;;21.92;4.50;;;;;;;;;;4993190;28;92571;-72
2023/08/08 02:33:29;;;;;;;25.77;4.38;;;;;;;;;;4997150;28;92497;-72
2023/08/08 02:35:56;;;;;;;19.73;4.22;;;;;;;;;;4990015;28;92439;-69
2023/08/08 02:38:22;;;;;;;21.05;4.13;;;;;;;;;;4996042;28;95653;-70
2023/08/08 02:40:48;;;;;;;21.38;4.18;;;;;;;;;;4985203;28;93377;-71
2023/08/08 02:43:16;;;;;;;19.42;4.25;;;;;;;;;;4991753;28;92559;-72
2023/08/08 02:45:42;;;;;;;14.13;4.00;;;;;;;;;;4996456;28;92960;-72
2023/08/08 02:48:09;;;;;;;17.55;3.97;;;;;;;;;;4992790;28;94314;-72
2023/08/08 02:50:35;;;;;;;18.30;4.22;;;;;;;;;;4989944;28;92523;-71
2023/08/08 02:53:02;;;;;;;16.25;4.25;;;;;;;;;;4991173;28;95213;-71
2023/08/08 02:55:28;;;;;;;21.30;5.15;;;;;;;;;;4987954;28;94971;-71
2023/08/08 02:57:54;;;;;;;27.80;5.65;;;;;;;;;;4989604;28;93601;-71
2023/08/08 03:00:21;;;;;;;14.38;4.22;;;;;;;;;;4993022;28;93434;-71
2023/08/08 03:02:47;;;;;;;16.30;4.68;;;;;;;;;;4990998;28;92640;-71
2023/08/08 03:05:13;;;;;;;23.77;5.25;;;;;;;;;;4997680;28;93154;-69
2023/08/08 03:07:40;;;;;;;15.27;4.40;;;;;;;;;;4996227;28;93775;-69
2023/08/08 03:10:06;;;;;;;17.17;4.07;;;;;;;;;;4998322;28;91687;-70
2023/08/08 03:12:33;;;;;;;19.08;4.18;;;;;;;;;;4987844;28;92510;-70
2023/08/08 03:14:59;;;;;;;16.80;4.75;;;;;;;;;;4993046;28;93395;-71
2023/08/08 03:17:25;;;;;;;16.50;4.57;;;;;;;;;;4996166;28;96377;-70
2023/08/08 03:19:52;;;;;;;16.52;4.55;;;;;;;;;;4993957;28;93321;-70
2023/08/08 03:22:18;;;;;;;14.88;3.95;;;;;;;;;;4993292;28;92810;-71
2023/08/08 03:24:45;;;;;;;16.38;4.47;;;;;;;;;;4990544;28;94114;-70
2023/08/08 03:27:11;;;;;;;18.13;4.60;;;;;;;;;;4993888;28;93440;-70
2023/08/08 03:29:38;;;;;;;16.42;5.13;;;;;;;;;;4996892;28;92484;-70
2023/08/08 03:32:04;;;;;;;13.63;4.43;;;;;;;;;;4989688;28;93198;-71
2023/08/08 03:34:31;;;;;;;17.50;4.78;;;;;;;;;;4994224;28;93162;-71
2023/08/08 03:36:59;;;;;;;15.57;5.05;;;;;;;;;;4990419;28;92443;-71
2023/08/08 03:39:26;;;;;;;16.73;4.70;;;;;;;;;;5001091;28;93870;-71
2023/08/08 03:41:52;;;;;;;33.60;5.80;;;;;;;;;;4995679;28;94862;-71
2023/08/08 03:44:19;;;;;;;23.80;4.55;;;;;;;;;;4993212;28;96591;-71
2023/08/08 03:46:45;;;;;;;20.77;4.97;;;;;;;;;;4991470;28;93431;-71
2023/08/08 03:49:12;;;;;;;18.80;5.45;;;;;;;;;;4989532;28;92493;-72
2023/08/08 03:51:38;;;;;;;24.75;5.82;;;;;;;;;;4992194;28;93124;-71
2023/08/08 03:54:05;;;;;;;22.88;5.18;;;;;;;;;;4988281;28;93393;-72
2023/08/08 03:56:31;;;;;;;16.13;4.43;;;;;;;;;;4991743;28;92555;-71
2023/08/08 03:58:57;;;;;;;19.52;4.93;;;;;;;;;;4994787;28;94064;-72
2023/08/08 04:01:24;;;;;;;16.38;4.80;;;;;;;;;;4991437;28;92478;-71
2023/08/08 04:03:50;;;;;;;20.02;4.93;;;;;;;;;;4992693;28;93129;-71
2023/08/08 04:06:16;;;;;;;21.13;5.43;;;;;;;;;;4989369;28;95786;-71
2023/08/08 04:08:43;;;;;;;21.50;5.25;;;;;;;;;;4991594;28;92447;-71
2023/08/08 04:11:09;;;;;;;26.35;5.05;;;;;;;;;;4991849;28;93176;-71
2023/08/08 04:13:36;;;;;;;12.52;4.38;;;;;;;;;;4990489;28;93443;-70
2023/08/08 04:16:03;;;;;;;16.77;4.35;;;;;;;;;;4990785;28;92936;-71
2023/08/08 04:18:29;;;;;;;15.43;5.03;;;;;;;;;;4992986;28;93155;-70
2023/08/08 04:20:55;;;;;;;19.60;4.90;;;;;;;;;;4991393;28;93748;-70
2023/08/08 04:23:25;;;;;;;17.05;4.80;;;;;;;;;;4990055;28;94221;-71
2023/08/08 04:25:52;;;;;;;20.20;4.85;;;;;;;;;;4989306;28;93345;-71
2023/08/08 04:28:19;;;;;;;11.95;4.60;;;;;;;;;;4992439;28;92645;-71
2023/08/08 04:30:45;;;;;;;24.65;4.88;;;;;;;;;;4986837;28;95095;-71
2023/08/08 04:33:11;;;;;;;20.75;5.22;;;;;;;;;;4989095;28;93512;-71
2023/08/08 04:35:38;;;;;;;12.15;4.32;;;;;;;;;;4987799;28;93107;-71
2023/08/08 04:38:04;;;;;;;19.35;5.00;;;;;;;;;;4991871;28;93205;-72
2023/08/08 04:40:31;;;;;;;17.38;4.57;;;;;;;;;;4989085;28;92386;-70
2023/08/08 04:42:57;;;;;;;15.65;4.75;;;;;;;;;;4993315;28;92415;-70
2023/08/08 04:45:27;;;;;;;16.90;4.63;;;;;;;;;;4989940;28;92932;-69
2023/08/08 04:47:53;;;;;;;13.93;4.57;;;;;;;;;;4990139;28;91806;-70
2023/08/08 04:50:19;;;;;;;20.88;5.35;;;;;;;;;;4988776;28;92382;-71
2023/08/08 04:52:46;;;;;;;15.75;4.28;;;;;;;;;;4993885;28;94459;-71
2023/08/08 04:55:12;;;;;;;15.20;5.25;;;;;;;;;;4989090;28;95150;-70
2023/08/08 04:57:38;;;;;;;23.13;5.15;;;;;;;;;;4990891;28;95921;-71
2023/08/08 05:00:08;;;;;;;20.35;5.40;;;;;;;;;;4991717;28;95300;-71
2023/08/08 05:02:35;;;;;;;18.33;5.68;;;;;;;;;;4993986;28;92841;-70
2023/08/08 05:05:01;;;;;;;21.67;5.97;;;;;;;;;;4995726;28;93273;-71
2023/08/08 05:07:28;;;;;;;17.15;5.15;;;;;;;;;;4992838;28;92469;-71
2023/08/08 05:09:54;;;;;;;17.40;4.90;;;;;;;;;;4992360;28;93099;-70
2023/08/08 05:12:20;;;;;;;17.08;4.75;;;;;;;;;;4992151;28;92699;-70
2023/08/08 05:14:47;;;;;;;14.88;5.30;;;;;;;;;;4994170;28;93029;-69
2023/08/08 05:17:13;;;;;;;15.27;4.60;;;;;;;;;;4992969;28;93190;-70
2023/08/08 05:19:39;;;;;;;21.42;4.90;;;;;;;;;;4990481;28;95757;-70
2023/08/08 05:22:06;;;;;;;17.73;5.00;;;;;;;;;;4991738;28;92451;-70
2023/08/08 05:24:32;;;;;;;16.30;5.00;;;;;;;;;;4992726;28;93190;-70
2023/08/08 05:26:58;;;;;;;13.80;4.95;;;;;;;;;;4994868;28;94436;-70
2023/08/08 05:29:25;;;;;;;18.30;4.78;;;;;;;;;;4992045;28;94178;-70
2023/08/08 05:31:52;;;;;;;18.75;4.45;;;;;;;;;;4989703;28;93249;-70
2023/08/08 05:34:19;;;;;;;15.75;4.85;;;;;;;;;;4991968;28;92458;-70
2023/08/08 05:36:45;;;;;;;17.90;4.45;;;;;;;;;;4990823;28;94204;-71
2023/08/08 05:39:11;;;;;;;16.90;4.10;;;;;;;;;;4986944;28;93371;-70
2023/08/08 05:41:38;;;;;;;12.05;3.85;;;;;;;;;;4991575;28;93312;-70
2023/08/08 05:44:04;;;;;;;9.43;3.63;;;;;;;;;;4989731;28;94981;-69
2023/08/08 05:46:30;;;;;;;22.20;3.50;;;;;;;;;;4987359;28;92560;-69
2023/08/08 05:48:57;;;;;;;15.98;3.50;;;;;;;;;;4992624;28;92655;-72
2023/08/08 05:51:23;;;;;;;13.43;3.85;;;;;;;;;;4991115;28;93420;-69
2023/08/08 05:53:50;;;;;;;9.23;3.53;;;;;;;;;;4985141;28;92712;-69
2023/08/08 05:56:16;;;;;;;10.80;3.33;;;;;;;;;;4987393;28;94680;-70
2023/08/08 05:58:42;;;;;;;11.38;3.38;;;;;;;;;;4987781;28;93431;-70
2023/08/08 06:01:11;;;;;;;9.57;2.65;;;;;;;;;;4986054;28;91880;-70
2023/08/08 06:03:38;;;;;;;12.80;2.05;;;;;;;;;;4987123;28;92756;-70
2023/08/08 06:06:04;;;;;;;9.85;2.13;;;;;;;;;;4989822;28;94419;-74
2023/08/08 06:08:31;;;;;;;8.63;2.40;;;;;;;;;;4992911;28;94992;-74
2023/08/08 06:10:58;;;;;;;11.23;2.10;;;;;;;;;;4987629;28;96236;-74
2023/08/08 06:13:24;;;;;;;8.05;2.03;;;;;;;;;;4991984;28;93690;-73
2023/08/08 06:15:51;;;;;;;7.35;2.20;;;;;;;;;;4989103;28;93749;-73
2023/08/08 06:18:17;;;;;;;10.13;2.13;;;;;;;;;;4989451;28;93438;-74
2023/08/08 06:20:43;;;;;;;11.23;1.83;;;;;;;;;;4986969;28;92691;-74
2023/08/08 06:23:10;;;;;;;6.82;1.70;;;;;;;;;;4986132;28;93538;-73
2023/08/08 06:25:38;;;;;;;9.05;1.80;;;;;;;;;;4992728;28;92579;-73
2023/08/08 06:28:06;;;;;;;9.00;1.42;;;;;;;;;;4991548;28;92412;-74
2023/08/08 06:30:32;;;;;;;4.28;1.50;;;;;;;;;;4992704;28;93527;-74
2023/08/08 06:32:59;;;;;;;5.30;1.42;;;;;;;;;;4989280;28;94912;-74
2023/08/08 06:35:25;;;;;;;11.65;1.83;;;;;;;;;;4990431;28;95693;-73
2023/08/08 06:37:52;;;;;;;11.30;1.80;;;;;;;;;;4989609;28;93953;-74
2023/08/08 06:40:18;;;;;;;13.05;1.67;;;;;;;;;;4994828;28;92403;-74
2023/08/08 06:42:45;;;;;;;9.98;1.65;;;;;;;;;;4994891;28;93773;-74
2023/08/08 06:45:11;;;;;;;5.45;1.25;;;;;;;;;;5008021;28;93293;-73
2023/08/08 06:47:37;;;;;;;6.10;1.38;;;;;;;;;;4992211;28;92431;-74
2023/08/08 06:50:05;;;;;;;8.38;1.20;;;;;;;;;;4991145;28;93503;-74
2023/08/08 06:52:31;;;;;;;12.13;1.60;;;;;;;;;;4991814;28;93779;-74
2023/08/08 06:54:58;;;;;;;8.45;1.55;;;;;;;;;;4993087;28;93325;-74
2023/08/08 06:57:24;;;;;;;5.88;0.90;;;;;;;;;;4992441;28;95987;-74
2023/08/08 06:59:52;;;;;;;5.40;1.10;;;;;;;;;;4994287;28;92382;-74
2023/08/08 07:02:19;;;;;;;6.78;1.35;;;;;;;;;;4990985;28;93088;-74
2023/08/08 07:04:46;;;;;;;4.80;1.05;;;;;;;;;;4990481;28;93466;-74
2023/08/08 07:07:12;;;;;;;7.15;1.60;;;;;;;;;;4993959;28;92567;-74
2023/08/08 07:09:39;;;;;;;6.35;1.13;;;;;;;;;;4994339;28;92975;-73
2023/08/08 07:12:05;;;;;;;8.52;1.25;;;;;;;;;;4994639;28;93484;-73
2023/08/08 07:14:32;;;;;;;4.78;1.02;;;;;;;;;;4996761;28;92125;-73
2023/08/08 07:16:59;;;;;;;6.20;1.10;;;;;;;;;;4992158;28;93451;-73
2023/08/08 07:19:25;;;;;;;6.53;0.95;;;;;;;;;;4994485;28;92463;-73
2023/08/08 07:21:52;;;;;;;4.00;1.10;;;;;;;;;;4991315;28;94815;-73
2023/08/08 07:24:19;;;;;;;9.50;1.25;;;;;;;;;;4985504;28;93779;-73
2023/08/08 07:26:46;;;;;;;5.75;1.33;;;;;;;;;;4993201;28;92888;-73
2023/08/08 07:29:12;;;;;;;7.50;1.30;;;;;;;;;;4993440;28;93122;-73
2023/08/08 07:31:39;;;;;;;8.27;1.17;;;;;;;;;;4991725;28;93493;-73
2023/08/08 07:34:05;;;;;;;3.53;0.95;;;;;;;;;;4993958;28;92544;-73
2023/08/08 07:36:31;;;;;;;7.32;1.20;;;;;;;;;;4991620;28;93419;-73
2023/08/08 07:38:59;;;;;;;4.38;0.85;;;;;;;;;;4993811;28;91831;-73
2023/08/08 07:41:26;;;;;;;2.53;0.98;;;;;;;;;;4994350;28;92932;-73
2023/08/08 07:43:53;;;;;;;6.68;1.52;;;;;;;;;;4990347;28;93382;-73
2023/08/08 07:46:19;;;;;;;4.47;1.08;;;;;;;;;;4988690;28;94865;-73
2023/08/08 07:48:46;;;;;;;4.75;0.80;;;;;;;;;;4991918;28;95314;-73
2023/08/08 07:51:12;;;;;;;3.10;0.70;;;;;;;;;;4991971;28;93246;-73
2023/08/08 07:53:39;;;;;;;11.23;1.80;;;;;;;;;;4993108;28;92475;-73
2023/08/08 07:56:05;;;;;;;4.55;1.08;;;;;;;;;;4991845;28;93638;-73
2023/08/08 07:58:32;;;;;;;5.57;0.80;;;;;;;;;;4996641;28;93566;-73
2023/08/08 08:00:59;;;;;;;3.55;0.82;;;;;;;;;;4993664;28;94290;-72
2023/08/08 08:03:28;;;;;;;3.83;0.83;;;;;;;;;;4992730;28;92662;-72
2023/08/08 08:05:55;;;;;;;2.72;1.02;;;;;;;;;;4991989;28;92476;-72
2023/08/08 08:08:21;;;;;;;5.15;1.05;;;;;;;;;;4994524;28;93270;-73
2023/08/08 08:10:48;;;;;;;5.53;1.02;;;;;;;;;;4994465;28;95826;-73
2023/08/08 08:13:14;;;;;;;4.80;0.95;;;;;;;;;;4989058;28;92563;-73
2023/08/08 08:15:41;;;;;;;2.10;0.80;;;;;;;;;;4998069;28;95335;-73
2023/08/08 08:18:07;;;;;;;3.15;0.70;;;;;;;;;;4988964;28;93351;-73
2023/08/08 08:20:34;;;;;;;6.20;1.38;;;;;;;;;;4993449;28;92402;-73
2023/08/08 08:23:00;;;;;;;3.42;0.60;;;;;;;;;;4989949;28;92514;-72
2023/08/08 08:25:27;;;;;;;2.55;0.55;;;;;;;;;;4991377;28;92494;-72
2023/08/08 08:27:53;;;;;;;4.60;0.70;;;;;;;;;;4994082;28;93137;-72
2023/08/08 08:30:19;;;;;;;4.53;1.00;;;;;;;;;;4993122;28;93410;-72
2023/08/08 08:32:46;;;;;;;7.72;0.98;;;;;;;;;;4991939;28;92475;-72
2023/08/08 08:35:13;;;;;;;2.88;0.73;;;;;;;;;;4985965;28;95118;-76
2023/08/08 08:37:39;;;;;;;2.83;0.70;;;;;;;;;;4991325;28;93464;-72
2023/08/08 08:40:06;;;;;;;1.70;0.50;;;;;;;;;;4996460;28;92535;-72
2023/08/08 08:42:33;;;;;;;4.15;0.60;;;;;;;;;;4991039;28;93427;-73
2023/08/08 08:45:01;;;;;;;2.00;0.60;;;;;;;;;;4984440;28;93638;-73
2023/08/08 08:47:29;;;;;;;9.07;0.93;;;;;;;;;;4992958;28;93155;-73
2023/08/08 08:49:56;;;;;;;1.75;0.60;;;;;;;;;;4981183;28;93347;-73
2023/08/08 08:52:22;;;;;;;1.23;0.50;;;;;;;;;;4991532;28;91860;-73
2023/08/08 08:54:52;;;;;;;1.83;1.10;;;;;;;;;;4991264;28;92693;-73
2023/08/08 08:57:21;;;;;;;8.77;1.20;;;;;;;;;;4994207;28;93482;-73
2023/08/08 08:59:47;;;;;;;6.78;0.85;;;;;;;;;;4989988;28;95248;-74
2023/08/08 09:02:14;;;;;;;2.65;0.82;;;;;;;;;;4994826;28;95458;-73
2023/08/08 09:04:40;;;;;;;3.95;0.93;;;;;;;;;;4992936;28;92381;-73
2023/08/08 09:07:06;;;;;;;1.33;0.52;;;;;;;;;;4990654;28;93616;-74
2023/08/08 09:09:33;;;;;;;2.67;0.50;;;;;;;;;;4992285;28;93435;-73
2023/08/08 09:12:01;;;;;;;1.20;0.63;;;;;;;;;;4991822;28;92413;-73
2023/08/08 09:14:27;;;;;;;2.50;0.98;;;;;;;;;;4991379;28;93127;-73
2023/08/08 09:16:54;;;;;;;3.40;0.40;;;;;;;;;;4992789;28;94740;-73
2023/08/08 09:19:21;;;;;;;2.78;0.70;;;;;;;;;;4985580;28;92650;-73
2023/08/08 09:21:48;;;;;;;1.23;0.43;;;;;;;;;;4979452;28;95233;-73
2023/08/08 09:24:14;;;;;;;7.82;0.90;;;;;;;;;;4992484;28;96264;-73
2023/08/08 09:26:41;;;;;;;2.55;0.73;;;;;;;;;;4991207;28;95816;-73
2023/08/08 09:29:07;;;;;;;6.80;0.88;;;;;;;;;;4995574;28;93409;-73
2023/08/08 09:31:34;;;;;;;3.08;0.77;;;;;;;;;;4989875;28;92487;-75
2023/08/08 09:34:02;;;;;;;1.60;0.65;;;;;;;;;;4990869;28;93114;-75
2023/08/08 09:36:28;;;;;;;3.35;0.68;;;;;;;;;;4992651;28;93943;-74
2023/08/08 09:38:57;;;;;;;1.90;0.70;;;;;;;;;;4987876;28;92529;-75
2023/08/08 09:41:24;;;;;;;1.42;0.70;;;;;;;;;;4992620;28;93053;-75
2023/08/08 09:43:51;;;;;;;1.85;0.70;;;;;;;;;;4990874;28;92443;-74
2023/08/08 09:46:21;;;;;;;3.08;0.57;;;;;;;;;;4995894;28;92570;-75
2023/08/08 09:48:48;;;;;;;2.65;0.50;;;;;;;;;;4988024;28;95864;-75
2023/08/08 09:51:14;;;;;;;4.78;0.88;;;;;;;;;;4989465;28;92820;-74
2023/08/08 09:53:41;;;;;;;1.15;0.60;;;;;;;;;;4987340;28;93631;-74
2023/08/08 09:56:08;;;;;;;2.72;1.02;;;;;;;;;;4990977;28;93775;-75
2023/08/08 09:58:34;;;;;;;2.33;0.98;;;;;;;;;;4990668;28;92465;-74
2023/08/08 10:01:01;;;;;;;1.95;0.82;;;;;;;;;;4991714;28;93413;-75
2023/08/08 10:03:28;;;;;;;3.22;0.70;;;;;;;;;;4984800;28;93425;-75
2023/08/08 10:05:54;;;;;;;3.38;0.70;;;;;;;;;;4988177;28;91830;-75
2023/08/08 10:08:21;;;;;;;4.68;0.70;;;;;;;;;;4993936;28;92359;-75
2023/08/08 10:10:49;;;;;;;4.03;0.73;;;;;;;;;;4992096;28;92454;-75
2023/08/08 10:13:19;;;;;;;2.10;1.00;;;;;;;;;;4989336;28;95018;-74
2023/08/08 10:15:45;;;;;;;0.98;0.63;;;;;;;;;;4992401;28;93412;-74
2023/08/08 10:18:12;;;;;;;2.20;0.80;;;;;;;;;;4993302;28;92974;-74
2023/08/08 10:20:41;;;;;;;0.95;0.70;;;;;;;;;;4994549;28;93101;-75
2023/08/08 10:23:08;;;;;;;2.70;0.60;;;;;;;;;;4995819;28;94188;-75
2023/08/08 10:25:35;;;;;;;5.38;0.90;;;;;;;;;;4993955;28;93519;-75
2023/08/08 10:28:20;;;;;;;2.15;0.70;;;;;;;;;;4996733;28;93133;-75
2023/08/08 10:30:52;;;;;;;3.03;0.70;;;;;;;;;;4994098;28;91752;-75
2023/08/08 10:33:19;;;;;;;6.60;0.88;;;;;;;;;;4993679;28;92876;-75
2023/08/08 10:36:03;;;;;;;7.53;0.98;;;;;;;;;;4994083;28;94043;-75
2023/08/08 10:38:39;;;;;;;2.78;1.00;;;;;;;;;;4989546;28;95190;-75
2023/08/08 10:41:09;;;;;;;1.23;0.68;;;;;;;;;;4993568;28;94484;-80
2023/08/08 10:43:35;;;;;;;2.15;0.88;;;;;;;;;;4990922;28;93991;-73
2023/08/08 10:46:02;;;;;;;1.92;0.80;;;;;;;;;;4991453;28;92553;-75
2023/08/08 10:48:49;;;;;;;4.55;0.85;;;;;;;;;;4992394;28;93169;-73
2023/08/08 10:51:16;;;;;;;0.68;0.60;;;;;;;;;;4999947;28;92508;-72
2023/08/08 10:53:43;;;;;;;6.13;0.90;;;;;;;;;;4987605;28;93120;-73
2023/08/08 10:56:12;;;;;;;1.88;0.63;;;;;;;;;;5003746;28;94094;-73
2023/08/08 10:58:41;;;;;;;3.25;0.82;;;;;;;;;;4996734;28;92619;-73
2023/08/08 11:01:09;;;;;;;4.10;0.73;;;;;;;;;;4992898;28;93008;-73
2023/08/08 11:03:36;;;;;;;2.25;0.68;;;;;;;;;;4987673;28;95996;-74
2023/08/08 11:06:03;;;;;;;1.63;0.60;;;;;;;;;;4994255;28;92430;-73
2023/08/08 11:08:31;;;;;;;2.42;0.70;;;;;;;;;;4990307;28;93309;-73
2023/08/08 11:10:58;;;;;;;0.85;0.65;;;;;;;;;;4994789;28;93465;-73
2023/08/08 11:13:25;;;;;;;4.28;0.60;;;;;;;;;;4995269;28;92882;-73
2023/08/08 11:15:55;;;;;;;2.67;0.75;;;;;;;;;;4989844;28;93715;-73
2023/08/08 11:18:21;;;;;;;1.23;0.70;;;;;;;;;;4995208;28;92519;-74
2023/08/08 11:20:48;;;;;;;4.28;0.75;;;;;;;;;;4995123;28;93650;-74
2023/08/08 11:23:16;;;;;;;1.15;0.52;;;;;;;;;;4992409;28;93362;-73
2023/08/08 11:25:44;;;;;;;1.58;0.57;;;;;;;;;;4996526;28;92570;-73
2023/08/08 11:28:12;;;;;;;4.45;1.30;;;;;;;;;;5000429;28;94895;-73
2023/08/08 11:30:42;;;;;;;2.78;0.60;;;;;;;;;;4991374;28;93733;-74
2023/08/08 11:33:09;;;;;;;1.92;0.80;;;;;;;;;;4993030;28;92488;-73
2023/08/08 11:35:43;;;;;;;0.87;0.70;;;;;;;;;;4993697;28;92992;-73
2023/08/08 11:38:09;;;;;;;2.42;1.02;;;;;;;;;;4992310;28;92875;-74
2023/08/08 11:40:36;;;;;;;6.28;0.70;;;;;;;;;;4993563;28;93700;-74
2023/08/08 11:43:02;;;;;;;1.70;0.70;;;;;;;;;;4996924;28;93785;-73
2023/08/08 11:45:29;;;;;;;1.75;0.65;;;;;;;;;;4994526;28;91830;-74
2023/08/08 11:47:56;;;;;;;5.50;0.70;;;;;;;;;;4992232;28;92659;-74
2023/08/08 11:50:23;;;;;;;4.93;0.60;;;;;;;;;;4992213;28;94541;-73
2023/08/08 11:52:53;;;;;;;6.15;1.02;;;;;;;;;;4985902;28;94860;-75
2023/08/08 11:55:23;;;;;;;;;;;;;;;;;;4992940;28;95697;-75
2023/08/08 11:57:50;;;;;;;1.17;0.68;;;;;;;;;;4996357;28;124084;-76
2023/08/08 12:00:17;;;;;;;4.38;0.80;;;;;;;;;;4993514;28;93122;-75
2023/08/08 12:02:44;;;;;;;3.00;0.82;;;;;;;;;;4990487;28;94880;-76
2023/08/08 12:05:12;;;;;;;3.38;0.70;;;;;;;;;;4990049;28;92564;-75
2023/08/08 12:07:44;;;;;;;2.33;0.70;;;;;;;;;;4989292;28;93123;-75
2023/08/08 12:10:18;;;;;;;6.35;1.20;;;;;;;;;;4993906;28;92785;-76
2023/08/08 12:12:46;;;;;;;2.90;0.70;;;;;;;;;;4988017;28;92759;-77
2023/08/08 12:15:13;;;;;;;1.83;0.70;;;;;;;;;;4991184;28;92593;-76
2023/08/08 12:17:42;;;;;;;1.55;0.70;;;;;;;;;;4988195;28;96170;-76
2023/08/08 12:20:09;;;;;;;3.88;1.05;;;;;;;;;;4996970;28;92688;-76
2023/08/08 12:22:36;;;;;;;7.18;0.88;;;;;;;;;;4996456;28;93217;-76
2023/08/08 12:25:03;;;;;;;5.90;1.20;;;;;;;;;;4989856;28;92944;-75
2023/08/08 12:27:30;;;;;;;1.73;0.93;;;;;;;;;;4991618;28;92991;-75
2023/08/08 12:29:56;;;;;;;2.25;0.98;;;;;;;;;;4995376;28;93604;-75
2023/08/08 12:32:26;;;;;;;3.08;0.68;;;;;;;;;;4982360;28;92410;-75
2023/08/08 12:34:53;;;;;;;3.65;0.85;;;;;;;;;;4987134;28;91873;-75
2023/08/08 12:37:19;;;;;;;0.65;0.50;;;;;;;;;;4989348;28;94164;-75
2023/08/08 12:39:45;;;;;;;3.40;1.23;;;;;;;;;;4988813;28;92928;-75
2023/08/08 12:42:12;;;;;;;6.50;0.90;;;;;;;;;;4986271;28;95765;-75
2023/08/08 12:44:39;;;;;;;2.50;0.90;;;;;;;;;;4993185;28;92409;-74
2023/08/08 12:47:05;;;;;;;3.92;0.63;;;;;;;;;;4984186;28;94174;-75
2023/08/08 12:49:32;;;;;;;1.20;0.60;;;;;;;;;;4989822;28;93440;-75
2023/08/08 12:51:58;;;;;;;4.25;0.90;;;;;;;;;;4995125;28;92488;-75
2023/08/08 12:54:25;;;;;;;2.28;0.90;;;;;;;;;;4991187;28;94267;-75
2023/08/08 12:56:52;;;;;;;5.55;1.20;;;;;;;;;;4983750;28;93785;-75
2023/08/08 12:59:18;;;;;;;2.25;0.82;;;;;;;;;;4990830;28;91769;-76
2023/08/08 13:01:45;;;;;;;3.60;1.05;;;;;;;;;;4994754;28;92558;-75
2023/08/08 13:04:11;;;;;;;4.35;1.27;;;;;;;;;;4988593;28;92634;-74
2023/08/08 13:06:46;;;;;;;0.70;0.50;;;;;;;;;;4985003;28;94976;-74
2023/08/08 13:09:13;;;;;;;1.48;0.90;;;;;;;;;;4992290;28;93256;-75
2023/08/08 13:11:40;;;;;;;11.68;1.10;;;;;;;;;;4991343;28;92545;-75
2023/08/08 13:14:06;;;;;;;2.38;0.80;;;;;;;;;;4985344;28;93487;-75
2023/08/08 13:16:32;;;;;;;6.85;0.95;;;;;;;;;;4990109;28;93366;-74
2023/08/08 13:18:59;;;;;;;2.05;0.80;;;;;;;;;;4992908;28;92421;-77
2023/08/08 13:21:25;;;;;;;2.88;0.88;;;;;;;;;;4992578;28;93391;-74
2023/08/08 13:23:52;;;;;;;3.90;1.38;;;;;;;;;;4992269;28;92659;-75
2023/08/08 13:26:18;;;;;;;2.13;0.90;;;;;;;;;;4987506;28;92595;-75
2023/08/08 13:28:45;;;;;;;1.80;0.77;;;;;;;;;;4987803;28;93980;-75
2023/08/08 13:31:11;;;;;;;3.70;0.88;;;;;;;;;;4991006;28;94887;-74
2023/08/08 13:33:38;;;;;;;4.53;1.08;;;;;;;;;;4990361;28;95937;-74
2023/08/08 13:36:04;;;;;;;3.08;1.13;;;;;;;;;;4993062;28;93451;-74
2023/08/08 13:38:31;;;;;;;2.75;0.80;;;;;;;;;;4995556;28;92456;-74
2023/08/08 13:40:57;;;;;;;5.20;1.20;;;;;;;;;;4987227;28;93415;-74
2023/08/08 13:43:24;;;;;;;7.47;1.02;;;;;;;;;;4996236;28;96871;-76
2023/08/08 13:45:50;;;;;;;7.53;1.63;;;;;;;;;;4996787;28;92514;-75
2023/08/08 13:48:17;;;;;;;2.95;1.20;;;;;;;;;;4990173;28;92925;-74
2023/08/08 13:50:44;;;;;;;6.35;1.25;;;;;;;;;;4991722;28;92420;-75
2023/08/08 13:53:10;;;;;;;5.63;0.98;;;;;;;;;;4995361;28;93575;-74
2023/08/08 13:55:39;;;;;;;3.28;0.82;;;;;;;;;;4988264;28;95796;-75
2023/08/08 13:58:06;;;;;;;5.00;1.17;;;;;;;;;;4993967;28;92749;-75
2023/08/08 14:00:33;;;;;;;9.68;1.02;;;;;;;;;;4995185;28;93456;-75
2023/08/08 14:03:00;;;;;;;3.40;0.98;;;;;;;;;;4993777;28;93844;-76
2023/08/08 14:05:28;;;;;;;2.90;0.88;;;;;;;;;;4995397;28;92381;-75
2023/08/08 14:07:54;;;;;;;3.35;0.90;;;;;;;;;;4997428;28;93120;-75
2023/08/08 14:10:21;;;;;;;1.00;0.63;;;;;;;;;;4995133;28;93009;-74
2023/08/08 14:12:47;;;;;;;5.50;0.93;;;;;;;;;;4992968;28;93133;-73
2023/08/08 14:15:13;;;;;;;5.05;1.05;;;;;;;;;;4981920;28;94126;-73
2023/08/08 14:17:40;;;;;;;4.15;0.93;;;;;;;;;;4982835;28;94257;-73
2023/08/08 14:20:07;;;;;;;6.65;1.67;;;;;;;;;;4994704;28;94752;-73
2023/08/08 14:22:34;;;;;;;3.45;0.73;;;;;;;;;;4989807;28;93175;-73
2023/08/08 14:25:00;;;;;;;1.92;0.80;;;;;;;;;;4988420;28;92697;-73
2023/08/08 14:27:26;;;;;;;5.68;0.98;;;;;;;;;;4998231;28;93189;-73
2023/08/08 14:29:53;;;;;;;3.58;0.73;;;;;;;;;;4990513;28;92500;-73
2023/08/08 14:32:19;;;;;;;1.92;0.75;;;;;;;;;;4985615;28;93157;-73
2023/08/08 14:34:45;;;;;;;2.78;0.77;;;;;;;;;;4991789;28;93123;-73
2023/08/08 14:37:12;;;;;;;3.10;1.05;;;;;;;;;;4986554;28;93787;-73